Temp: 16.2°C   Hum: 73%
  Wind: 2.9mph   Dir: SW (227°)
  Rain: 0.6mm Rate: 0.0mm/hr
  Pressure: 1017.7mb

Historic data

Bath Spa Weather Station Historical Data
Daily Summary for May 16, 2022 Units:  Metric    English   Both
Daily Weekly Monthly Yearly Custom
  High: Low: Average:
Temperature: 18.6 °C 13.2 °C 15.7 °C
Dew Point: 14.4 °C 11.2 °C 13.1 °C
Humidity: 94% 74.4% 85%
Wind Speed: 20.6km/h 0km/h 7.4km/h
Wind Gust: 35.4km/h - -
Wind- - SSW
Pressure: 1017.8 hPa 1009.4 hPa -
Precipitation: 1.78 mm    
Historical Graphs
 
 
Tabular Data for May 16, 2022
Time Temperature Dew Point Pressure Wind Wind Speed Wind Gust Humidity Rainfall Rate (Hourly) solar
00:09 14.3 °C 13 °C 1010 hPa ESE 5 km/h 14.5 km/h 92% 0.25 mm 0 W/m2
00:14 14.3 °C 13 °C 1010.4 hPa ESE 1.9 km/h 6.4 km/h 92% 0.25 mm 0 W/m2
00:19 14.3 °C 13 °C 1010.4 hPa ESE 1.3 km/h 4.8 km/h 92% 0.25 mm 0 W/m2
00:24 14.3 °C 13 °C 1010 hPa ESE 2.4 km/h 4.8 km/h 92% 0.25 mm 0 W/m2
00:29 14.3 °C 13 °C 1010 hPa ESE 1.9 km/h 6.4 km/h 92% 0.25 mm 0 W/m2
00:34 14.2 °C 12.9 °C 1010 hPa ESE 0.3 km/h 3.2 km/h 92% 0.25 mm 0 W/m2
00:39 14.2 °C 12.9 °C 1010 hPa ESE 2.3 km/h 4.8 km/h 92% 0.25 mm 0 W/m2
00:44 14.2 °C 12.9 °C 1010 hPa ESE 2.4 km/h 4.8 km/h 92% 0.25 mm 0 W/m2
00:49 14.2 °C 12.9 °C 1010.4 hPa ESE 0.3 km/h 4.8 km/h 92% 0.25 mm 0 W/m2
00:54 14.1 °C 12.8 °C 1010.4 hPa ESE 2.1 km/h 4.8 km/h 92% 0.25 mm 0 W/m2
00:59 14.1 °C 12.8 °C 1010 hPa Calm   4.8 km/h 92% 0.25 mm 0 W/m2
01:04 14.1 °C 12.8 °C 1010 hPa Calm     92% 0 mm 0 W/m2
01:09 14.1 °C 12.9 °C 1010 hPa Calm     92.8% 0 mm 0 W/m2
01:14 14 °C 12.9 °C 1010 hPa ESE 0.3 km/h 4.8 km/h 93% 0 mm 0 W/m2
01:19 14 °C 12.9 °C 1010 hPa ESE 1.4 km/h 4.8 km/h 93% 0 mm 0 W/m2
01:24 14.1 °C 13 °C 1010 hPa ESE 3.5 km/h 6.4 km/h 93% 0.25 mm 0 W/m2
01:29 14.1 °C 13 °C 1010 hPa SE 5.1 km/h 8 km/h 93% 0.25 mm 0 W/m2
01:34 14.1 °C 13 °C 1010.4 hPa SE 3.9 km/h 6.4 km/h 93% 0.51 mm 0 W/m2
01:39 14.2 °C 13.1 °C 1010 hPa SE 4 km/h 8 km/h 93% 0.51 mm 0 W/m2
01:44 14.2 °C 13.1 °C 1010 hPa SE 4 km/h 6.4 km/h 93% 0.51 mm 0 W/m2
01:49 14.2 °C 13.1 °C 1010 hPa ESE 1.6 km/h 6.4 km/h 93% 0.51 mm 0 W/m2
01:54 14.2 °C 13.1 °C 1010 hPa ESE 3.4 km/h 11.3 km/h 93% 0.51 mm 0 W/m2
01:59 14.2 °C 13.2 °C 1010 hPa ESE 8 km/h 16.1 km/h 93% 0.51 mm 0 W/m2
02:04 14.3 °C 13.2 °C 1010 hPa SE 6.3 km/h 12.9 km/h 93% 1.52 mm 0 W/m2
02:09 14.4 °C 13.3 °C 1010 hPa SE 9.7 km/h 17.7 km/h 93% 1.52 mm 0 W/m2
02:14 14.4 °C 13.3 °C 1010 hPa SE 8.7 km/h 14.5 km/h 93% 1.78 mm 0 W/m2
02:19 14.4 °C 13.3 °C 1009.7 hPa SE 6.4 km/h 17.7 km/h 93% 1.78 mm 0 W/m2
02:24 14.4 °C 13.3 °C 1010 hPa SE 3.7 km/h 17.7 km/h 93% 1.78 mm 0 W/m2
02:29 14.4 °C 13.3 °C 1010 hPa SSE 3.2 km/h 6.4 km/h 93.4% 1.52 mm 0 W/m2
02:34 14.4 °C 13.4 °C 1010 hPa ESE 2.7 km/h 9.7 km/h 94% 1.52 mm 0 W/m2
02:39 14.4 °C 13.4 °C 1010 hPa ESE 1.3 km/h 4.8 km/h 94% 1.52 mm 0 W/m2
02:44 14.4 °C 13.4 °C 1009.7 hPa ESE 2.3 km/h 6.4 km/h 94% 1.52 mm 0 W/m2
02:49 14.4 °C 13.4 °C 1009.7 hPa East 1.9 km/h 8 km/h 94% 1.52 mm 0 W/m2
02:54 14.4 °C 13.4 °C 1009.7 hPa Calm   3.2 km/h 94% 1.52 mm 0 W/m2
02:59 14.4 °C 13.4 °C 1009.7 hPa East 2.4 km/h 4.8 km/h 94% 1.27 mm 0 W/m2
03:04 14.3 °C 13.3 °C 1009.7 hPa East 3.5 km/h 6.4 km/h 94% 1.02 mm 0 W/m2
03:09 14.3 °C 13.3 °C 1009.7 hPa East 1.4 km/h 4.8 km/h 94% 0.25 mm 0 W/m2
03:14 14.3 °C 13.3 °C 1010 hPa Calm   4.8 km/h 94% 0.25 mm 0 W/m2
03:19 14.3 °C 13.3 °C 1009.7 hPa Calm     94% 0 mm 0 W/m2
03:24 14.3 °C 13.3 °C 1009.7 hPa East 1 km/h 4.8 km/h 94% 0 mm 0 W/m2
03:29 14.3 °C 13.3 °C 1009.7 hPa East 3.9 km/h 4.8 km/h 94% 0 mm 0 W/m2
03:34 14.3 °C 13.3 °C 1009.7 hPa East 0.8 km/h 4.8 km/h 94% 0 mm 0 W/m2
03:39 14.2 °C 13.2 °C 1009.7 hPa East 1.4 km/h 4.8 km/h 94% 0 mm 0 W/m2
03:44 14.2 °C 13.2 °C 1009.4 hPa East 3.7 km/h 8 km/h 94% 0 mm 0 W/m2
03:49 14.3 °C 13.3 °C 1009.7 hPa East 1.9 km/h 6.4 km/h 94% 0 mm 0 W/m2
03:54 14.3 °C 13.3 °C 1009.7 hPa East 1.9 km/h 8 km/h 94% 0 mm 0 W/m2
03:59 14.3 °C 13.3 °C 1009.7 hPa East 1.9 km/h 6.4 km/h 94% 0 mm 0 W/m2
04:04 14.3 °C 13.3 °C 1009.7 hPa ESE 4.3 km/h 9.7 km/h 94% 0 mm 0 W/m2
04:09 14.4 °C 13.4 °C 1009.7 hPa SE 3.7 km/h 9.7 km/h 94% 0 mm 0 W/m2
04:14 14.4 °C 13.4 °C 1009.7 hPa SE 3.2 km/h 8 km/h 94% 0 mm 0 W/m2
04:19 14.4 °C 13.4 °C 1010 hPa SE 2.4 km/h 4.8 km/h 94% 0 mm 0 W/m2
04:24 14.4 °C 13.4 °C 1010 hPa SE 3.2 km/h 9.7 km/h 94% 0 mm 0 W/m2
04:29 14.5 °C 13.5 °C 1010 hPa SSE 2.9 km/h 9.7 km/h 94% 0 mm 0 W/m2
04:34 14.6 °C 13.6 °C 1010 hPa SW 9.3 km/h 14.5 km/h 94% 0 mm 0 W/m2
04:39 14.6 °C 13.6 °C 1010 hPa WSW 6.4 km/h 14.5 km/h 94% 0 mm 0 W/m2
04:44 14.6 °C 13.6 °C 1010 hPa SSW 2.4 km/h 11.3 km/h 94% 0 mm 0 W/m2
04:49 14.6 °C 13.6 °C 1009.7 hPa SSW 0.8 km/h 3.2 km/h 94% 0 mm 0 W/m2
04:54 14.5 °C 13.5 °C 1010 hPa SSW 2.7 km/h 11.3 km/h 94% 0 mm 0 W/m2
04:59 14.5 °C 13.5 °C 1010 hPa SSW 2.1 km/h 4.8 km/h 94% 0 mm 0 W/m2
05:04 14.4 °C 13.4 °C 1010 hPa SSW 1.1 km/h 4.8 km/h 94% 0 mm 0 W/m2
05:09 14.4 °C 13.4 °C 1010 hPa SW 4 km/h 9.7 km/h 94% 0 mm 0 W/m2
05:14 14.3 °C 13.3 °C 1010 hPa SW 4.5 km/h 11.3 km/h 94% 0 mm 0 W/m2
05:19 14.3 °C 13.3 °C 1010 hPa SSW 3.2 km/h 12.9 km/h 94% 0 mm 0 W/m2
05:24 14.3 °C 13.3 °C 1010 hPa SSW 4.7 km/h 9.7 km/h 94% 0 mm 0 W/m2
05:29 14.2 °C 13.2 °C 1010.4 hPa SSW 4.8 km/h 11.3 km/h 94% 0 mm 5 W/m2
05:34 14.2 °C 13.2 °C 1010.4 hPa SW 4.8 km/h 14.5 km/h 93.4% 0 mm 5 W/m2
05:39 14.2 °C 13.1 °C 1010.4 hPa SW 6 km/h 14.5 km/h 93% 0 mm 11 W/m2
05:44 14.2 °C 13.1 °C 1010.7 hPa SSW 3.5 km/h 16.1 km/h 93% 0 mm 12 W/m2
05:49 14.2 °C 13.1 °C 1010.7 hPa SSW 4.5 km/h 11.3 km/h 93% 0 mm 11 W/m2
05:54 14.2 °C 13.1 °C 1010.7 hPa SSW 6 km/h 14.5 km/h 93% 0 mm 16 W/m2
05:59 14.2 °C 13.1 °C 1010.7 hPa SSW 5.8 km/h 11.3 km/h 93% 0 mm 33 W/m2
06:04 14.2 °C 13.1 °C 1011.1 hPa SW 5.3 km/h 12.9 km/h 93% 0 mm 35 W/m2
06:09 14.2 °C 13.1 °C 1011.1 hPa SW 5.1 km/h 12.9 km/h 93% 0 mm 40 W/m2
06:14 14.2 °C 13.1 °C 1011.1 hPa SSW 3.9 km/h 9.7 km/h 93% 0 mm 47 W/m2
06:19 14.2 °C 13.1 °C 1010.7 hPa SSW 1.1 km/h 6.4 km/h 93% 0 mm 65 W/m2
06:24 14.2 °C 13.1 °C 1011.1 hPa SSW 4.5 km/h 9.7 km/h 93% 0 mm 74 W/m2
06:29 14.2 °C 13.1 °C 1011.1 hPa SW 3.9 km/h 9.7 km/h 93% 0 mm 70 W/m2
06:34 14.3 °C 13.2 °C 1011.4 hPa SW 5.6 km/h 9.7 km/h 93% 0 mm 77 W/m2
06:39 14.3 °C 13.2 °C 1011.4 hPa SW 5.1 km/h 9.7 km/h 93% 0 mm 77 W/m2
06:44 14.3 °C 13.2 °C 1011.7 hPa SW 5.3 km/h 11.3 km/h 93% 0 mm 69 W/m2
06:49 14.3 °C 13.2 °C 1011.7 hPa SW 8.9 km/h 17.7 km/h 93% 0 mm 58 W/m2
06:54 14.2 °C 13.1 °C 1011.7 hPa SW 8.5 km/h 16.1 km/h 93% 0 mm 46 W/m2
06:59 14.2 °C 13.1 °C 1011.7 hPa SW 6.6 km/h 11.3 km/h 93% 0 mm 35 W/m2
07:04 14.2 °C 13.1 °C 1012.1 hPa SW 6.6 km/h 11.3 km/h 92.8% 0 mm 12 W/m2
07:09 14.2 °C 12.9 °C 1012.1 hPa SW 7.4 km/h 14.5 km/h 92.4% 0 mm 11 W/m2
07:14 14.1 °C 12.8 °C 1012.1 hPa SW 10 km/h 22.5 km/h 92% 0 mm 23 W/m2
07:19 14.1 °C 12.8 °C 1012.1 hPa SW 6.6 km/h 14.5 km/h 92% 0 mm 90 W/m2
07:34 14.2 °C 12.9 °C 1012.1 hPa SW 13.2 km/h 14.5 km/h 92% 0 mm 156 W/m2
07:39 14.2 °C 12.9 °C 1012.4 hPa SW 8.9 km/h 17.7 km/h 92% 0 mm 141 W/m2
07:44 14.2 °C 12.9 °C 1012.4 hPa SW 9 km/h 17.7 km/h 92% 0 mm 190 W/m2
07:49 14.3 °C 13.1 °C 1012.4 hPa WSW 9.2 km/h 17.7 km/h 92% 0 mm 195 W/m2
07:54 14.6 °C 13.2 °C 1012.4 hPa SW 9 km/h 16.1 km/h 91.8% 0 mm 218 W/m2
07:59 14.7 °C 13.2 °C 1012.4 hPa SW 9.3 km/h 20.9 km/h 91% 0 mm 190 W/m2
08:04 14.9 °C 13.4 °C 1012.4 hPa SW 9.3 km/h 20.9 km/h 91% 0 mm 171 W/m2
08:09 14.9 °C 13.3 °C 1012.4 hPa WSW 5.8 km/h 16.1 km/h 90.2% 0 mm 200 W/m2
08:14 15 °C 13.4 °C 1012.8 hPa SW 8.2 km/h 19.3 km/h 90% 0 mm 158 W/m2
08:19 15 °C 13.4 °C 1012.8 hPa SW 7.4 km/h 17.7 km/h 90% 0 mm 200 W/m2
08:24 14.9 °C 13.3 °C 1012.8 hPa SW 9.5 km/h 20.9 km/h 90% 0 mm 200 W/m2
08:29 14.9 °C 13.3 °C 1012.8 hPa WSW 8.7 km/h 16.1 km/h 90% 0 mm 223 W/m2
08:34 14.9 °C 13.3 °C 1012.8 hPa SW 9 km/h 17.7 km/h 89.8% 0 mm 237 W/m2
08:39 15.1 °C 13.3 °C 1012.8 hPa West 7.4 km/h 17.7 km/h 89% 0 mm 336 W/m2
08:44 15.2 °C 13.4 °C 1012.8 hPa SW 7.9 km/h 19.3 km/h 89% 0 mm 434 W/m2
08:49 15.4 °C 13.6 °C 1013.1 hPa SW 10 km/h 19.3 km/h 89% 0 mm 503 W/m2
08:54 15.4 °C 13.4 °C 1013.1 hPa SW 12.2 km/h 20.9 km/h 88% 0 mm 322 W/m2
08:59 15.4 °C 13.4 °C 1013.4 hPa SW 11.9 km/h 24.1 km/h 88% 0 mm 243 W/m2
09:04 15.4 °C 13.3 °C 1013.1 hPa SW 12.2 km/h 20.9 km/h 87.2% 0 mm 267 W/m2
09:09 15.7 °C 13.5 °C 1013.1 hPa WSW 9 km/h 22.5 km/h 87% 0 mm 441 W/m2
09:14 15.9 °C 13.7 °C 1013.1 hPa WSW 7.2 km/h 14.5 km/h 87% 0 mm 492 W/m2
09:19 16.2 °C 13.8 °C 1013.1 hPa WSW 7.1 km/h 16.1 km/h 85.6% 0 mm 612 W/m2
09:24 16.3 °C 13.8 °C 1013.1 hPa WSW 8.2 km/h 22.5 km/h 85% 0 mm 309 W/m2
09:29 16.1 °C 13.4 °C 1013.1 hPa SW 14.8 km/h 22.5 km/h 84% 0 mm 301 W/m2
09:34 16.2 °C 13.4 °C 1013.1 hPa SW 8.2 km/h 22.5 km/h 84% 0 mm 316 W/m2
09:39 16.3 °C 13.7 °C 1013.4 hPa SSW 7.2 km/h 20.9 km/h 84% 0 mm 325 W/m2
09:44 16.7 °C 13.8 °C 1013.4 hPa WSW 8.4 km/h 17.7 km/h 83.4% 0 mm 301 W/m2
09:49 16.9 °C 13.9 °C 1013.4 hPa SSW 10.6 km/h 24.1 km/h 82.6% 0 mm 717 W/m2
09:54 16.9 °C 13.7 °C 1013.4 hPa SW 15.1 km/h 22.5 km/h 81.4% 0 mm 717 W/m2
09:59 16.8 °C 13.7 °C 1013.4 hPa WSW 12.7 km/h 22.5 km/h 82% 0 mm 309 W/m2
10:04 17 °C 13.9 °C 1013.4 hPa SW 7.2 km/h 17.7 km/h 82.2% 0 mm 464 W/m2
10:09 17.2 °C 14.1 °C 1013.4 hPa SW 10.6 km/h 19.3 km/h 82% 0 mm 376 W/m2
10:14 17.1 °C 13.9 °C 1013.8 hPa SW 8.4 km/h 16.1 km/h 81.6% 0 mm 499 W/m2
10:19 17.2 °C 14.1 °C 1013.8 hPa SW 9 km/h 19.3 km/h 82% 0 mm 568 W/m2
10:24 17.3 °C 13.9 °C 1013.8 hPa SW 10.8 km/h 20.9 km/h 81% 0 mm 810 W/m2
10:29 17.3 °C 14 °C 1014.1 hPa SW 9.3 km/h 16.1 km/h 81% 0 mm 232 W/m2
10:34 17.2 °C 13.9 °C 1014.1 hPa WSW 9.7 km/h 19.3 km/h 81% 0 mm 559 W/m2
10:39 17.3 °C 14.1 °C 1014.1 hPa SW 10.6 km/h 19.3 km/h 81.2% 0 mm 793 W/m2
10:44 17.6 °C 14.2 °C 1014.1 hPa SW 10.6 km/h 20.9 km/h 80.2% 0 mm 842 W/m2
10:49 17.6 °C 14.1 °C 1014.1 hPa WSW 11.3 km/h 17.7 km/h 80% 0 mm 795 W/m2
10:54 17.6 °C 13.9 °C 1014.4 hPa WSW 12.9 km/h 22.5 km/h 78.8% 0 mm 315 W/m2
10:59 17.9 °C 14 °C 1014.4 hPa SW 7.2 km/h 17.7 km/h 78.2% 0 mm 905 W/m2
11:04 17.8 °C 13.8 °C 1014.1 hPa SW 9 km/h 19.3 km/h 77.2% 0 mm 462 W/m2
11:09 18.1 °C 13.9 °C 1014.1 hPa SW 9.8 km/h 16.1 km/h 76.8% 0 mm 1007 W/m2
11:14 18.3 °C 14.1 °C 1014.1 hPa SSW 7.6 km/h 14.5 km/h 76% 0 mm 865 W/m2
11:19 18.6 °C 14 °C 1014.4 hPa SSW 10 km/h 19.3 km/h 74.8% 0 mm 865 W/m2
11:24 18.4 °C 14 °C 1014.4 hPa SW 12.9 km/h 19.3 km/h 75.4% 0 mm 816 W/m2
11:29 18.4 °C 13.9 °C 1014.4 hPa SW 10.9 km/h 24.1 km/h 75.2% 0 mm 362 W/m2
11:34 18.3 °C 13.7 °C 1014.4 hPa SW 11.1 km/h 24.1 km/h 74.4% 0 mm 360 W/m2
11:39 18.2 °C 13.7 °C 1014.4 hPa WSW 11.9 km/h 20.9 km/h 74.8% 0 mm 471 W/m2
11:44 18.4 °C 13.8 °C 1014.4 hPa SW 10.9 km/h 25.7 km/h 74.8% 0 mm 454 W/m2
11:49 18.4 °C 13.9 °C 1014.4 hPa SW 7.6 km/h 20.9 km/h 74.8% 0 mm 279 W/m2
11:54 18.3 °C 13.9 °C 1014.8 hPa SSW 14.8 km/h 25.7 km/h 75.6% 0 mm 345 W/m2
11:59 18.1 °C 14.2 °C 1014.8 hPa South 11.9 km/h 29 km/h 78% 0 mm 1234 W/m2
12:04 18.3 °C 14.4 °C 1014.8 hPa South 10.5 km/h 29 km/h 77.8% 0 mm 1234 W/m2
12:09 18.5 °C 14.4 °C 1014.8 hPa SSW 13.2 km/h 24.1 km/h 77.2% 0 mm 1102 W/m2
12:14 18.3 °C 14.2 °C 1014.8 hPa WSW 11.9 km/h 27.4 km/h 77% 0 mm 487 W/m2
12:19 18.3 °C 14.2 °C 1014.8 hPa SSW 10.6 km/h 20.9 km/h 77% 0 mm 515 W/m2
12:24 17.9 °C 14.1 °C 1015.1 hPa SW 11.9 km/h 30.6 km/h 78% 0 mm 464 W/m2
12:29 17.7 °C 13.9 °C 1015.1 hPa SW 12.9 km/h 25.7 km/h 78.6% 0 mm 399 W/m2
12:34 17.6 °C 14 °C 1015.1 hPa SW 10.3 km/h 24.1 km/h 79.6% 0 mm 315 W/m2
12:39 17.7 °C 14.2 °C 1015.1 hPa SSW 10.6 km/h 22.5 km/h 80% 0 mm 461 W/m2
12:44 17.8 °C 14.2 °C 1015.1 hPa SW 12.6 km/h 24.1 km/h 79.2% 0 mm 529 W/m2
12:49 17.9 °C 14.2 °C 1015.1 hPa SSW 20.3 km/h 27.4 km/h 79% 0 mm 476 W/m2
12:54 17.7 °C 14 °C 1015.1 hPa South 15.1 km/h 32.2 km/h 79% 0 mm 552 W/m2
12:59 17.6 °C 13.9 °C 1015.1 hPa SSW 18.7 km/h 29 km/h 79.4% 0 mm 288 W/m2
13:04 17.6 °C 13.8 °C 1015.1 hPa SSW 12.6 km/h 33.8 km/h 79% 0 mm 339 W/m2
13:09 17.6 °C 13.9 °C 1015.1 hPa SW 15.1 km/h 33.8 km/h 78.8% 0 mm 336 W/m2
13:14 17.6 °C 13.7 °C 1015.5 hPa SSW 13.8 km/h 33.8 km/h 78% 0 mm 302 W/m2
13:19 17.4 °C 13.5 °C 1015.1 hPa SW 14.5 km/h 33.8 km/h 78% 0 mm 188 W/m2
13:24 17 °C 13.3 °C 1015.5 hPa SW 15.6 km/h 35.4 km/h 78.8% 0 mm 225 W/m2
13:29 16.8 °C 13.4 °C 1015.1 hPa SSW 13.7 km/h 29 km/h 80.3% 0 mm 295 W/m2
13:34 16.9 °C 13.3 °C 1015.1 hPa SW 15.1 km/h 30.6 km/h 79.6% 0 mm 283 W/m2
13:39 16.9 °C 13 °C 1015.1 hPa SW 14.8 km/h 32.2 km/h 77.8% 0 mm 629 W/m2
13:44 17.1 °C 13.2 °C 1015.1 hPa South 15.4 km/h 24.1 km/h 78% 0 mm 431 W/m2
13:49 17.6 °C 13.4 °C 1015.1 hPa South 12.2 km/h 24.1 km/h 76.8% 0 mm 1100 W/m2
13:54 18.1 °C 13.6 °C 1015.1 hPa SSW 11.9 km/h 27.4 km/h 75% 0 mm 1100 W/m2
13:59 18 °C 13.4 °C 1015.1 hPa SSW 11.4 km/h 27.4 km/h 74.8% 0 mm 322 W/m2
14:04 17.7 °C 13.2 °C 1015.1 hPa South 11.9 km/h 22.5 km/h 74.8% 0 mm 330 W/m2
14:09 17.6 °C 13.1 °C 1015.1 hPa South 11.3 km/h 20.9 km/h 75% 0 mm 279 W/m2
14:14 17.5 °C 13 °C 1015.1 hPa SSW 11.6 km/h 29 km/h 75% 0 mm 221 W/m2
14:19 17.2 °C 12.8 °C 1015.1 hPa South 15.1 km/h 29 km/h 75.8% 0 mm 197 W/m2
14:24 16.9 °C 12.8 °C 1015.1 hPa SW 12.1 km/h 29 km/h 77.2% 0 mm 362 W/m2
14:29 16.8 °C 13 °C 1015.1 hPa SSW 10 km/h 27.4 km/h 78.4% 0 mm 461 W/m2
14:34 17.1 °C 13.3 °C 1015.1 hPa SSW 11.7 km/h 24.1 km/h 78.2% 0 mm 457 W/m2
14:39 16.9 °C 13.1 °C 1015.1 hPa SSW 13.5 km/h 24.1 km/h 78.4% 0 mm 302 W/m2
14:44 16.8 °C 13.1 °C 1015.1 hPa SSW 10.8 km/h 17.7 km/h 79.4% 0 mm 207 W/m2
14:49 16.5 °C 13.4 °C 1015.1 hPa South 8.7 km/h 27.4 km/h 82% 0 mm 346 W/m2
14:54 16.2 °C 13.3 °C 1015.1 hPa SW 12.9 km/h 20.9 km/h 83.3% 0 mm 357 W/m2
14:59 16 °C 13.3 °C 1015.1 hPa South 10.5 km/h 25.7 km/h 84% 0 mm 345 W/m2
15:04 16.2 °C 13.4 °C 1015.1 hPa SW 12.2 km/h 25.7 km/h 84% 0 mm 350 W/m2
15:09 16.2 °C 13.4 °C 1015.1 hPa SSW 11.4 km/h 25.7 km/h 83.6% 0 mm 392 W/m2
15:14 16.3 °C 13.4 °C 1015.1 hPa SSW 12.7 km/h 27.4 km/h 83% 0 mm 265 W/m2
15:19 16.1 °C 13.3 °C 1015.1 hPa SSW 12.6 km/h 29 km/h 83.4% 0 mm 260 W/m2
15:24 16.1 °C 13.4 °C 1015.1 hPa SW 11.9 km/h 27.4 km/h 84% 0 mm 251 W/m2
15:29 16 °C 13.1 °C 1015.1 hPa SSW 20.6 km/h 33.8 km/h 83% 0 mm 285 W/m2
15:34 15.8 °C 12.9 °C 1015.1 hPa SW 15 km/h 27.4 km/h 83.2% 0 mm 260 W/m2
15:39 15.8 °C 13.2 °C 1015.1 hPa SW 15.8 km/h 29 km/h 84% 0 mm 230 W/m2
15:44 15.8 °C 13.1 °C 1015.1 hPa SW 11.6 km/h 33.8 km/h 84% 0 mm 214 W/m2
15:49 15.8 °C 13.1 °C 1015.1 hPa SW 12.4 km/h 24.1 km/h 84% 0 mm 227 W/m2
15:54 15.8 °C 13.1 °C 1015.1 hPa SSW 10.1 km/h 24.1 km/h 84% 0 mm 410 W/m2
15:59 16 °C 13.3 °C 1015.1 hPa SSW 14.2 km/h 22.5 km/h 84% 0 mm 577 W/m2
16:04 16.3 °C 13.4 °C 1015.1 hPa SSW 13.8 km/h 29 km/h 83% 0 mm 816 W/m2
16:09 16.7 °C 13.6 °C 1015.1 hPa SSW 14.2 km/h 25.7 km/h 82% 0 mm 791 W/m2
16:14 16.6 °C 13.3 °C 1015.1 hPa SW 9.5 km/h 24.1 km/h 81.4% 0 mm 299 W/m2
16:19 16.6 °C 13.3 °C 1015.1 hPa SSW 9 km/h 19.3 km/h 81.2% 0 mm 209 W/m2
16:24 16.7 °C 13.4 °C 1015.1 hPa SW 11.1 km/h 20.9 km/h 81.4% 0 mm 889 W/m2
16:29 16.9 °C 13.6 °C 1015.1 hPa SSW 12.6 km/h 25.7 km/h 80.8% 0 mm 789 W/m2
16:34 16.9 °C 13.4 °C 1015.1 hPa SW 10.9 km/h 22.5 km/h 80.4% 0 mm 575 W/m2
16:39 17.2 °C 13.7 °C 1015.1 hPa SSW 11.3 km/h 24.1 km/h 80.2% 0 mm 863 W/m2
16:43 17.4 °C 13.9 °C 1015.1 hPa SSW 9.5 km/h 19.3 km/h 79.8% 0 mm 638 W/m2
16:49 17.7 °C 14 °C 1015.1 hPa South 12.9 km/h 24.1 km/h 78.8% 0 mm 652 W/m2
16:54 17.8 °C 13.9 °C 1015.1 hPa SSW 13.2 km/h 25.7 km/h 77.6% 0 mm 636 W/m2
16:59 17.7 °C 13.7 °C 1015.1 hPa WSW 11.4 km/h 16.1 km/h 77.5% 0 mm 327 W/m2
17:04 17.7 °C 13.8 °C 1015.1 hPa SW 6.9 km/h 16.1 km/h 77.8% 0 mm 350 W/m2
17:09 17.6 °C 13.6 °C 1015.1 hPa WSW 13.2 km/h 22.5 km/h 77.6% 0 mm 229 W/m2
17:14 17.6 °C 13.7 °C 1015.1 hPa South 8.5 km/h 22.5 km/h 78% 0 mm 329 W/m2
17:19 17.7 °C 13.8 °C 1015.5 hPa SW 9 km/h 22.5 km/h 78% 0 mm 606 W/m2
17:24 17.7 °C 13.8 °C 1015.5 hPa SW 8.2 km/h 22.5 km/h 78% 0 mm 376 W/m2
17:29 17.7 °C 13.8 °C 1015.5 hPa South 11.9 km/h 17.7 km/h 78.2% 0 mm 308 W/m2
17:34 17.6 °C 13.8 °C 1015.5 hPa SSW 8.5 km/h 20.9 km/h 79% 0 mm 202 W/m2
17:39 17.4 °C 13.8 °C 1015.5 hPa SSW 6.4 km/h 20.9 km/h 79.2% 0 mm 158 W/m2
17:44 17.6 °C 13.9 °C 1015.5 hPa SW 7.4 km/h 17.7 km/h 79.2% 0 mm 178 W/m2
17:49 17.7 °C 14.1 °C 1015.5 hPa SW 9 km/h 19.3 km/h 79.2% 0 mm 243 W/m2
17:54 17.8 °C 13.9 °C 1015.5 hPa SW 8 km/h 16.1 km/h 78% 0 mm 114 W/m2
18:04 17.8 °C 13.9 °C 1015.5 hPa SW 8.7 km/h 16.1 km/h 78% 0 mm 123 W/m2
18:09 17.7 °C 13.8 °C 1015.5 hPa WSW 5.1 km/h 17.7 km/h 78% 0 mm 113 W/m2
18:14 17.5 °C 13.6 °C 1015.5 hPa WSW 7.7 km/h 12.9 km/h 78% 0 mm 60 W/m2
18:19 17.2 °C 13.2 °C 1015.5 hPa West 8.7 km/h 14.5 km/h 77.6% 0 mm 40 W/m2
18:24 16.9 °C 13 °C 1015.5 hPa West 6.1 km/h 12.9 km/h 78% 0 mm 58 W/m2
18:29 16.8 °C 13.1 °C 1015.5 hPa West 3.9 km/h 8 km/h 78.4% 0 mm 69 W/m2
18:34 16.9 °C 13.2 °C 1015.5 hPa West 2.9 km/h 6.4 km/h 79% 0 mm 100 W/m2
18:39 17.1 °C 13.4 °C 1015.8 hPa West 2.1 km/h 6.4 km/h 79% 0 mm 107 W/m2
18:44 17.1 °C 13.2 °C 1015.8 hPa West 3.2 km/h 8 km/h 78% 0 mm 135 W/m2
18:49 17.2 °C 13.3 °C 1015.8 hPa WSW 5 km/h 8 km/h 78% 0 mm 113 W/m2
18:53 17.3 °C 13.4 °C 1015.8 hPa SW 7.6 km/h 17.7 km/h 78% 0 mm 111 W/m2
18:59 17.2 °C 13.3 °C 1015.8 hPa SW 8.4 km/h 17.7 km/h 78% 0 mm 123 W/m2
19:04 17.2 °C 13.1 °C 1015.8 hPa SW 11.3 km/h 17.7 km/h 77% 0 mm 141 W/m2
19:09 17.1 °C 13.1 °C 1015.8 hPa SW 10.3 km/h 17.7 km/h 77.4% 0 mm 139 W/m2
19:14 17 °C 12.9 °C 1015.8 hPa SSW 11.6 km/h 22.5 km/h 77% 0 mm 199 W/m2
19:29 16.8 °C 12.9 °C 1016.1 hPa South 8.4 km/h 17.7 km/h 78% 0 mm 63 W/m2
19:34 16.7 °C 12.8 °C 1016.1 hPa SSW 7.7 km/h 14.5 km/h 78.2% 0 mm 79 W/m2
19:39 16.4 °C 12.8 °C 1016.1 hPa SSW 6.9 km/h 16.1 km/h 79% 0 mm 104 W/m2
19:44 16.3 °C 12.7 °C 1016.1 hPa SSW 6.6 km/h 16.1 km/h 79.4% 0 mm 83 W/m2
19:49 16.2 °C 12.7 °C 1016.1 hPa SW 7.7 km/h 16.1 km/h 80% 0 mm 102 W/m2
19:54 15.9 °C 12.6 °C 1016.1 hPa SW 11.9 km/h 19.3 km/h 80% 0 mm 97 W/m2
19:59 15.8 °C 12.4 °C 1016.5 hPa SW 8.7 km/h 16.1 km/h 80.2% 0 mm 86 W/m2
20:03 15.8 °C 12.5 °C 1016.5 hPa WSW 6.4 km/h 16.1 km/h 81% 0 mm 70 W/m2
20:09 15.7 °C 12.4 °C 1016.1 hPa SW 8.7 km/h 16.1 km/h 81% 0 mm 63 W/m2
20:14 15.6 °C 12.4 °C 1016.1 hPa SW 9.7 km/h 16.1 km/h 81% 0 mm 40 W/m2
20:19 15.5 °C 12.3 °C 1016.5 hPa SW 7.9 km/h 16.1 km/h 81% 0 mm 28 W/m2
20:24 15.4 °C 12.2 °C 1016.5 hPa SW 9.3 km/h 14.5 km/h 81.2% 0 mm 21 W/m2
20:29 15.3 °C 12.2 °C 1016.5 hPa SSW 8.2 km/h 20.9 km/h 82% 0 mm 18 W/m2
20:34 15.2 °C 12.1 °C 1016.5 hPa SSW 4.5 km/h 14.5 km/h 82% 0 mm 14 W/m2
20:39 15.1 °C 12.1 °C 1016.5 hPa SW 7.9 km/h 14.5 km/h 82.2% 0 mm 11 W/m2
20:44 15 °C 12.1 °C 1016.5 hPa SW 6.8 km/h 12.9 km/h 83% 0 mm 9 W/m2
20:49 14.9 °C 12 °C 1016.8 hPa SSW 5.8 km/h 14.5 km/h 83% 0 mm 7 W/m2
20:54 14.8 °C 11.9 °C 1016.8 hPa SSW 7.9 km/h 12.9 km/h 83% 0 mm 0 W/m2
20:59 14.8 °C 11.9 °C 1016.8 hPa SSW 6.9 km/h 14.5 km/h 83% 0 mm 0 W/m2
21:03 14.7 °C 11.8 °C 1016.8 hPa SW 5.1 km/h 12.9 km/h 83% 0 mm 0 W/m2
21:09 14.7 °C 11.8 °C 1016.8 hPa SW 3.9 km/h 11.3 km/h 83% 0 mm 0 W/m2
21:14 14.6 °C 11.7 °C 1016.8 hPa WSW 5.3 km/h 9.7 km/h 83% 0 mm 0 W/m2
21:19 14.6 °C 11.7 °C 1016.8 hPa SW 5.6 km/h 9.7 km/h 83% 0 mm 0 W/m2
21:24 14.6 °C 11.7 °C 1016.8 hPa SW 4.5 km/h 11.3 km/h 83% 0 mm 0 W/m2
21:29 14.6 °C 11.7 °C 1016.8 hPa WSW 4.8 km/h 12.9 km/h 83% 0 mm 0 W/m2
21:34 14.5 °C 11.6 °C 1017.2 hPa WSW 4 km/h 8 km/h 83% 0 mm 0 W/m2
21:39 14.5 °C 11.6 °C 1017.2 hPa SSW 5.6 km/h 11.3 km/h 83% 0 mm 0 W/m2
21:44 14.6 °C 11.7 °C 1017.2 hPa SSW 4.7 km/h 11.3 km/h 82.8% 0 mm 0 W/m2
21:49 14.6 °C 11.6 °C 1017.2 hPa SSW 7.4 km/h 17.7 km/h 82% 0 mm 0 W/m2
21:54 14.6 °C 11.6 °C 1017.5 hPa SSW 6 km/h 14.5 km/h 82% 0 mm 0 W/m2
21:59 14.4 °C 11.4 °C 1017.5 hPa SSW 4.7 km/h 11.3 km/h 82% 0 mm 0 W/m2
22:04 14.4 °C 11.4 °C 1017.5 hPa SSW 3.9 km/h 9.7 km/h 82% 0 mm 0 W/m2
22:09 14.4 °C 11.4 °C 1017.5 hPa South 4 km/h 9.7 km/h 82% 0 mm 0 W/m2
22:14 14.3 °C 11.3 °C 1017.5 hPa South 1.9 km/h 8 km/h 82% 0 mm 0 W/m2
22:19 14.3 °C 11.3 °C 1017.5 hPa South 4 km/h 6.4 km/h 82% 0 mm 0 W/m2
22:24 14.3 °C 11.4 °C 1017.5 hPa SSW 3.4 km/h 9.7 km/h 82.4% 0 mm 0 W/m2
22:29 14.3 °C 11.5 °C 1017.5 hPa SSW 3.4 km/h 8 km/h 83% 0 mm 0 W/m2
22:34 14.3 °C 11.5 °C 1017.5 hPa SSW 2.9 km/h 8 km/h 83% 0 mm 0 W/m2
22:39 14.2 °C 11.4 °C 1017.5 hPa SSW 2.3 km/h 8 km/h 83.2% 0 mm 0 W/m2
22:44 14.2 °C 11.5 °C 1017.5 hPa SSW 2.4 km/h 4.8 km/h 84% 0 mm 0 W/m2
22:49 14.2 °C 11.5 °C 1017.5 hPa SSW 2.7 km/h 8 km/h 84% 0 mm 0 W/m2
22:54 14.2 °C 11.4 °C 1017.5 hPa SSW 1.9 km/h 4.8 km/h 84% 0 mm 0 W/m2
22:59 14.1 °C 11.4 °C 1017.5 hPa SSW 1.3 km/h 4.8 km/h 84% 0 mm 0 W/m2
23:04 14.1 °C 11.6 °C 1017.5 hPa SSW 1 km/h 3.2 km/h 85% 0 mm 0 W/m2
23:09 13.9 °C 11.4 °C 1017.5 hPa SSW 0.8 km/h 4.8 km/h 85% 0 mm 0 W/m2
23:14 13.9 °C 11.4 °C 1017.5 hPa SSW 1.6 km/h 4.8 km/h 85% 0 mm 0 W/m2
23:19 13.8 °C 11.4 °C 1017.5 hPa SSW 2.6 km/h 4.8 km/h 85.4% 0 mm 0 W/m2
23:24 13.8 °C 11.5 °C 1017.5 hPa SSW 2.1 km/h 4.8 km/h 86% 0 mm 0 W/m2
23:28 13.7 °C 11.4 °C 1017.5 hPa SSW 3.1 km/h 4.8 km/h 86% 0 mm 0 W/m2
23:34 13.7 °C 11.4 °C 1017.8 hPa South 0.8 km/h 6.4 km/h 86% 0 mm 0 W/m2
23:39 13.6 °C 11.3 °C 1017.8 hPa South 3.2 km/h 6.4 km/h 86% 0 mm 0 W/m2
23:44 13.6 °C 11.3 °C 1017.8 hPa South 6 km/h 11.3 km/h 86% 0 mm 0 W/m2
23:49 13.4 °C 11.3 °C 1017.8 hPa South 6.8 km/h 14.5 km/h 86.8% 0 mm 0 W/m2
23:54 13.3 °C 11.2 °C 1017.8 hPa South 5.8 km/h 11.3 km/h 87% 0 mm 0 W/m2
23:59 13.2 °C 11.2 °C 1017.8 hPa South 7.2 km/h 11.3 km/h 87% 0 mm 0 W/m2
Bath Spa Weather
Compliments of Weather Underground - 2 mb